Flight Track Log - Related Links

Times and Time Zones

All times are in EDT time to prevent confusion due to time zone crossing. See the RPA3496 flight status page for this flight to view local times or setup timezone preferences in your user account.

Time Position Orientation Groundspeed Altitude Reporting Facility
EDT Latitude Longitude Course Direction KTS MPH feet Rate Location/Type
Wed 02:49:06 PM 39.8833 -75.2167 44° Northeast 163 188 1,300  Level Philadelphia TRACON
Wed 02:50:37 PM 39.8833 -75.1000 90° East 284 327 4,800 2,102 Climbing Philadelphia TRACON
Wed 02:51:43 PM 39.9000 -74.9833 79° East 288 331 6,800 1,100 Climbing Philadelphia TRACON
Wed 02:52:00 PM 39.8500 -75.0039 90° East  Level FlightAware Approximate
Wed 02:53:00 PM 39.8616 -74.9522 44° Northeast  Level FlightAware Approximate
Wed 02:53:37 PM 39.9833 -74.8167 57° Northeast 287 330 8,100  Level New York TRACON
Wed 02:54:00 PM 39.9042 -74.8990 44° Northeast  Level FlightAware Approximate
Wed 02:54:37 PM 40.0333 -74.7500 46° Northeast 285 328 8,100  Level New York TRACON
Wed 02:55:38 PM 40.0833 -74.6667 52° Northeast 286 329 8,100  Level New York TRACON
Wed 02:56:38 PM 40.1333 -74.5833 52° Northeast 286 329 8,100  Level New York TRACON
Wed 02:57:43 PM 40.2000 -74.5000 44° Northeast 290 334 8,100  Level New York TRACON
Wed 02:58:43 PM 40.2500 -74.4333 45° Northeast 285 328 8,100 -200 Level New York TRACON
Wed 02:59:43 PM 40.3167 -74.3667 37° Northeast 282 325 7,700 -522 Descending New York TRACON
Wed 03:00:38 PM 40.3667 -74.3000 45° Northeast 276 318 7,100 -313 Descending New York TRACON
Wed 03:01:38 PM 40.4167 -74.2500 37° Northeast 281 323 7,100  Level New York TRACON
Wed 03:02:38 PM 40.4833 -74.1833 37° Northeast 277 319 7,100 -550 Level New York TRACON
Wed 03:03:38 PM 40.5500 -74.1167 37° Northeast 277 319 6,000 -1,400 Descending New York TRACON
Wed 03:04:38 PM 40.6000 -74.0667 37° Northeast 266 306 4,300 -950 Descending New York TRACON
Wed 03:05:38 PM 40.6667 -74.0333 21° North 263 303 4,100 -100 Descending New York TRACON
Wed 03:06:38 PM 40.7500 -74.0167 North 257 296 4,100  Level New York TRACON
Wed 03:07:38 PM 40.8000 -73.9833 27° Northeast 262 302 4,100 -500 Level New York TRACON
Wed 03:08:38 PM 40.8500 -73.9167 45° Northeast 254 292 3,100 -750 Descending New York TRACON
Wed 03:09:38 PM 40.9000 -73.8667 37° Northeast 205 236 2,600 -550 Descending New York TRACON
Wed 03:10:38 PM 40.8667 -73.8167 131° Southeast 177 204 2,000 -700 Descending New York TRACON
Wed 03:11:38 PM 40.8333 -73.8333 201° Southwest 144 166 1,200 -700 Descending New York TRACON
Wed 03:12:38 PM 40.8000 -73.8500 201° Southwest 116 133 600 -600 Descending New York TRACON
Wed 03:14:00 PM 40.7667 -73.8667 180° South  Level FlightAware Approximate

Login

Don't have an account? Register now (free) for customized features, flight alerts, and more!